This is the latest recevied weather packets stored in our database for station/object KC9VAF. If no packets are shown the sender has not sent any weather packets the latest 1 day(s).
| Time | Temp. | Humidity | Pressure | Rain* | Wind** | Luminosity | Snow |
|---|---|---|---|---|---|---|---|
| 1777982478 | 7.78° C | 52% | 1009.4 hPa | 0 mm | 0.45 m/s, 104° | 53 W/m² | - |
| 1777982172 | 7.78° C | 52% | 1008.6 hPa | 0 mm | 0 m/s | 58 W/m² | - |
| 1777981869 | 7.78° C | 51% | 1008.3 hPa | 0 mm | 0.89 m/s, 60° | 61 W/m² | - |
| 1777981566 | 7.78° C | 51% | 1008.4 hPa | 0 mm | 0.45 m/s, 56° | 45 W/m² | - |
| 1777981263 | 7.22° C | 51% | 1007.8 hPa | 0 mm | 0.45 m/s, 75° | 47 W/m² | - |
| 1777980960 | 7.22° C | 51% | 1007.4 hPa | 0 mm | 0.45 m/s, 35° | 42 W/m² | - |
| 1777980656 | 7.22° C | 50% | 1007.5 hPa | 0 mm | 0.89 m/s, 27° | 34 W/m² | - |
| 1777980352 | 7.78° C | 51% | 1007.9 hPa | 0 mm | 0 m/s | 30 W/m² | - |
| 1777980050 | 7.22° C | 52% | 1008 hPa | 0 mm | 0.45 m/s, 14° | 23 W/m² | - |
| 1777979744 | 7.78° C | 51% | 1007.9 hPa | 0 mm | 0 m/s | 21 W/m² | - |
| 1777979440 | 7.78° C | 50% | 1008.5 hPa | 0 mm | 0.89 m/s, 308° | 15 W/m² | - |
| 1777979137 | 7.78° C | 51% | 1008.1 hPa | 0 mm | 0.45 m/s, 72° | 12 W/m² | - |
| 1777978834 | 7.78° C | 51% | 1008.3 hPa | 0 mm | 0.45 m/s, 66° | 8 W/m² | - |
| 1777978530 | 7.78° C | 50% | 1007.9 hPa | 0 mm | 0.45 m/s, 71° | 5 W/m² | - |
| 1777978226 | 7.78° C | 50% | 1008 hPa | 0 mm | 0.45 m/s, 59° | 2 W/m² | - |
| 1777977924 | 7.78° C | 49% | 1007.8 hPa | 0 mm | 1.79 m/s, 315° | 2 W/m² | - |
| 1777977621 | 7.78° C | 49% | 1007.9 hPa | 0 mm | 1.79 m/s, 327° | 1 W/m² | - |
| 1777977318 | 7.78° C | 48% | 1007.4 hPa | 0 mm | 0.45 m/s, 73° | 0 W/m² | - |
| 1777977015 | 8.33° C | 48% | 1007.6 hPa | 0 mm | 0.45 m/s, 11° | 0 W/m² | - |
| 1777976712 | 8.33° C | 48% | 1007 hPa | 0 mm | 0.45 m/s, 343° | 0 W/m² | - |
| 1777976410 | 8.33° C | 47% | 1007.2 hPa | 0 mm | 1.34 m/s, 359° | 0 W/m² | - |
| 1777976108 | 8.33° C | 47% | 1007.3 hPa | 0 mm | 0.89 m/s, 325° | 0 W/m² | - |
| 1777975804 | 8.33° C | 47% | 1007.2 hPa | 0 mm | 0.45 m/s, 327° | 0 W/m² | - |
| 1777975501 | 8.33° C | 48% | 1006.8 hPa | 0 mm | 1.34 m/s, 275° | 0 W/m² | - |
| 1777975197 | 8.33° C | 48% | 1007.2 hPa | 0 mm | 0.45 m/s, 22° | 0 W/m² | - |
* Rain latest hour (hover to see other rain measurements)
** Current wind speed in m/s (hover to see current wind gust speed)